sensor_id;sensor_type;location;lat;lon;timestamp;P1;durP1;ratioP1;P2;durP2;ratioP2
51438;SDS011;38816;51.142;-0.974;2022-11-20T00:01:45;42.08;;;17.25;;
51438;SDS011;38816;51.142;-0.974;2022-11-20T00:04:10;38.50;;;16.10;;
51438;SDS011;38816;51.142;-0.974;2022-11-20T00:06:37;37.30;;;16.88;;
51438;SDS011;38816;51.142;-0.974;2022-11-20T00:09:02;35.92;;;16.48;;
51438;SDS011;38816;51.142;-0.974;2022-11-20T00:11:29;30.30;;;16.85;;
51438;SDS011;38816;51.142;-0.974;2022-11-20T00:13:56;34.47;;;17.77;;
51438;SDS011;38816;51.142;-0.974;2022-11-20T00:16:24;40.05;;;18.45;;
51438;SDS011;38816;51.142;-0.974;2022-11-20T00:18:52;39.80;;;18.65;;
51438;SDS011;38816;51.142;-0.974;2022-11-20T00:21:19;45.25;;;19.80;;
51438;SDS011;38816;51.142;-0.974;2022-11-20T00:23:49;41.47;;;20.60;;
51438;SDS011;38816;51.142;-0.974;2022-11-20T00:26:16;45.92;;;20.50;;
51438;SDS011;38816;51.142;-0.974;2022-11-20T00:28:43;43.33;;;20.13;;
51438;SDS011;38816;51.142;-0.974;2022-11-20T00:31:10;39.55;;;20.42;;
51438;SDS011;38816;51.142;-0.974;2022-11-20T00:33:38;42.72;;;20.50;;
51438;SDS011;38816;51.142;-0.974;2022-11-20T00:36:04;39.08;;;20.77;;
51438;SDS011;38816;51.142;-0.974;2022-11-20T00:38:34;43.17;;;22.60;;
51438;SDS011;38816;51.142;-0.974;2022-11-20T00:41:00;49.25;;;25.63;;
51438;SDS011;38816;51.142;-0.974;2022-11-20T00:43:27;54.63;;;23.17;;
51438;SDS011;38816;51.142;-0.974;2022-11-20T00:45:56;52.33;;;25.10;;
51438;SDS011;38816;51.142;-0.974;2022-11-20T00:48:22;51.97;;;24.63;;
51438;SDS011;38816;51.142;-0.974;2022-11-20T00:50:48;50.83;;;25.50;;
51438;SDS011;38816;51.142;-0.974;2022-11-20T00:53:13;59.00;;;24.95;;
51438;SDS011;38816;51.142;-0.974;2022-11-20T00:55:39;52.55;;;25.50;;
51438;SDS011;38816;51.142;-0.974;2022-11-20T00:58:04;47.55;;;24.27;;
51438;SDS011;38816;51.142;-0.974;2022-11-20T01:00:30;45.40;;;22.85;;
51438;SDS011;38816;51.142;-0.974;2022-11-20T01:02:55;45.40;;;22.88;;
51438;SDS011;38816;51.142;-0.974;2022-11-20T01:05:21;47.80;;;22.05;;
51438;SDS011;38816;51.142;-0.974;2022-11-20T01:07:46;45.67;;;21.27;;
51438;SDS011;38816;51.142;-0.974;2022-11-20T01:10:11;48.17;;;19.20;;
51438;SDS011;38816;51.142;-0.974;2022-11-20T01:12:37;41.08;;;20.15;;
51438;SDS011;38816;51.142;-0.974;2022-11-20T01:15:02;41.38;;;20.08;;
51438;SDS011;38816;51.142;-0.974;2022-11-20T01:17:28;46.17;;;20.48;;
51438;SDS011;38816;51.142;-0.974;2022-11-20T01:19:53;41.50;;;19.42;;
51438;SDS011;38816;51.142;-0.974;2022-11-20T01:22:18;37.55;;;19.48;;
51438;SDS011;38816;51.142;-0.974;2022-11-20T01:24:44;40.33;;;18.42;;
51438;SDS011;38816;51.142;-0.974;2022-11-20T01:27:09;38.13;;;18.90;;
51438;SDS011;38816;51.142;-0.974;2022-11-20T01:29:35;36.45;;;17.58;;
51438;SDS011;38816;51.142;-0.974;2022-11-20T01:32:00;41.78;;;18.60;;
51438;SDS011;38816;51.142;-0.974;2022-11-20T01:34:26;41.88;;;17.48;;
51438;SDS011;38816;51.142;-0.974;2022-11-20T01:36:51;33.90;;;15.43;;
51438;SDS011;38816;51.142;-0.974;2022-11-20T01:39:22;35.47;;;15.73;;
51438;SDS011;38816;51.142;-0.974;2022-11-20T01:41:49;30.30;;;15.00;;
51438;SDS011;38816;51.142;-0.974;2022-11-20T01:47:25;33.67;;;16.42;;
51438;SDS011;38816;51.142;-0.974;2022-11-20T01:50:06;36.42;;;14.88;;
51438;SDS011;38816;51.142;-0.974;2022-11-20T01:52:41;32.00;;;12.98;;
51438;SDS011;38816;51.142;-0.974;2022-11-20T01:55:21;32.50;;;12.80;;
51438;SDS011;38816;51.142;-0.974;2022-11-20T01:57:50;30.67;;;11.63;;
51438;SDS011;38816;51.142;-0.974;2022-11-20T02:00:17;30.20;;;12.52;;
51438;SDS011;38816;51.142;-0.974;2022-11-20T02:02:46;34.95;;;11.23;;
51438;SDS011;38816;51.142;-0.974;2022-11-20T02:05:18;34.75;;;12.52;;
51438;SDS011;38816;51.142;-0.974;2022-11-20T02:07:48;21.98;;;10.68;;
51438;SDS011;38816;51.142;-0.974;2022-11-20T02:10:15;24.75;;;11.10;;
51438;SDS011;38816;51.142;-0.974;2022-11-20T02:12:41;25.77;;;8.27;;
51438;SDS011;38816;51.142;-0.974;2022-11-20T02:15:25;18.42;;;8.20;;
51438;SDS011;38816;51.142;-0.974;2022-11-20T02:17:50;23.52;;;8.80;;
51438;SDS011;38816;51.142;-0.974;2022-11-20T02:20:16;22.63;;;9.43;;
51438;SDS011;38816;51.142;-0.974;2022-11-20T02:22:46;23.27;;;8.80;;
51438;SDS011;38816;51.142;-0.974;2022-11-20T02:25:19;15.32;;;7.18;;
51438;SDS011;38816;51.142;-0.974;2022-11-20T02:27:45;14.52;;;6.95;;
51438;SDS011;38816;51.142;-0.974;2022-11-20T02:30:10;13.48;;;6.55;;
51438;SDS011;38816;51.142;-0.974;2022-11-20T02:32:36;20.52;;;6.25;;
51438;SDS011;38816;51.142;-0.974;2022-11-20T02:35:09;19.08;;;6.43;;
51438;SDS011;38816;51.142;-0.974;2022-11-20T02:37:56;23.00;;;6.90;;
51438;SDS011;38816;51.142;-0.974;2022-11-20T02:40:24;18.70;;;6.70;;
51438;SDS011;38816;51.142;-0.974;2022-11-20T02:42:56;16.58;;;6.97;;
51438;SDS011;38816;51.142;-0.974;2022-11-20T02:45:22;18.92;;;7.00;;
51438;SDS011;38816;51.142;-0.974;2022-11-20T02:47:49;23.77;;;7.55;;
51438;SDS011;38816;51.142;-0.974;2022-11-20T02:50:14;18.67;;;8.35;;
51438;SDS011;38816;51.142;-0.974;2022-11-20T02:52:40;27.73;;;10.40;;
51438;SDS011;38816;51.142;-0.974;2022-11-20T02:55:05;25.98;;;10.45;;
51438;SDS011;38816;51.142;-0.974;2022-11-20T02:57:31;22.50;;;11.15;;
51438;SDS011;38816;51.142;-0.974;2022-11-20T02:59:57;23.35;;;10.38;;
51438;SDS011;38816;51.142;-0.974;2022-11-20T03:02:22;25.10;;;10.68;;
51438;SDS011;38816;51.142;-0.974;2022-11-20T03:04:48;29.35;;;10.05;;
51438;SDS011;38816;51.142;-0.974;2022-11-20T03:07:13;16.90;;;8.98;;
51438;SDS011;38816;51.142;-0.974;2022-11-20T03:09:39;17.05;;;7.25;;
51438;SDS011;38816;51.142;-0.974;2022-11-20T03:12:04;12.07;;;6.80;;
51438;SDS011;38816;51.142;-0.974;2022-11-20T03:14:30;25.40;;;9.05;;
51438;SDS011;38816;51.142;-0.974;2022-11-20T03:16:55;23.77;;;9.52;;
51438;SDS011;38816;51.142;-0.974;2022-11-20T03:19:21;20.33;;;8.77;;
51438;SDS011;38816;51.142;-0.974;2022-11-20T03:21:47;22.45;;;8.88;;
51438;SDS011;38816;51.142;-0.974;2022-11-20T03:24:12;19.20;;;8.73;;
51438;SDS011;38816;51.142;-0.974;2022-11-20T03:26:38;21.70;;;8.27;;
51438;SDS011;38816;51.142;-0.974;2022-11-20T03:29:04;15.75;;;7.15;;
51438;SDS011;38816;51.142;-0.974;2022-11-20T03:31:31;19.45;;;8.57;;
51438;SDS011;38816;51.142;-0.974;2022-11-20T03:34:02;19.63;;;8.45;;
51438;SDS011;38816;51.142;-0.974;2022-11-20T03:36:29;22.23;;;9.93;;
51438;SDS011;38816;51.142;-0.974;2022-11-20T03:38:55;27.15;;;11.00;;
51438;SDS011;38816;51.142;-0.974;2022-11-20T03:41:22;24.33;;;11.10;;
51438;SDS011;38816;51.142;-0.974;2022-11-20T03:43:50;27.20;;;10.90;;
51438;SDS011;38816;51.142;-0.974;2022-11-20T03:46:17;30.33;;;11.20;;
51438;SDS011;38816;51.142;-0.974;2022-11-20T03:48:42;21.35;;;7.43;;
51438;SDS011;38816;51.142;-0.974;2022-11-20T03:51:15;15.02;;;5.38;;
51438;SDS011;38816;51.142;-0.974;2022-11-20T03:53:42;19.02;;;4.93;;
51438;SDS011;38816;51.142;-0.974;2022-11-20T03:56:10;24.23;;;7.00;;
51438;SDS011;38816;51.142;-0.974;2022-11-20T03:58:36;17.48;;;6.07;;
51438;SDS011;38816;51.142;-0.974;2022-11-20T04:01:39;22.88;;;8.23;;
51438;SDS011;38816;51.142;-0.974;2022-11-20T04:03:59;17.52;;;7.20;;
51438;SDS011;38816;51.142;-0.974;2022-11-20T04:06:25;19.30;;;6.78;;
51438;SDS011;38816;51.142;-0.974;2022-11-20T04:08:56;20.02;;;6.80;;
51438;SDS011;38816;51.142;-0.974;2022-11-20T04:11:23;20.98;;;8.38;;
51438;SDS011;38816;51.142;-0.974;2022-11-20T04:13:54;27.23;;;8.75;;
51438;SDS011;38816;51.142;-0.974;2022-11-20T04:16:21;19.98;;;8.95;;
51438;SDS011;38816;51.142;-0.974;2022-11-20T04:18:51;19.33;;;8.20;;
51438;SDS011;38816;51.142;-0.974;2022-11-20T04:21:17;21.00;;;8.10;;
51438;SDS011;38816;51.142;-0.974;2022-11-20T04:23:43;21.90;;;8.60;;
51438;SDS011;38816;51.142;-0.974;2022-11-20T04:26:09;21.42;;;8.00;;
51438;SDS011;38816;51.142;-0.974;2022-11-20T04:28:36;16.13;;;4.32;;
51438;SDS011;38816;51.142;-0.974;2022-11-20T04:31:06;15.70;;;4.15;;
51438;SDS011;38816;51.142;-0.974;2022-11-20T04:33:33;22.73;;;4.25;;
51438;SDS011;38816;51.142;-0.974;2022-11-20T04:36:01;12.75;;;3.97;;
51438;SDS011;38816;51.142;-0.974;2022-11-20T04:38:28;15.93;;;4.10;;
51438;SDS011;38816;51.142;-0.974;2022-11-20T04:41:00;15.93;;;4.30;;
51438;SDS011;38816;51.142;-0.974;2022-11-20T04:43:27;12.25;;;4.15;;
51438;SDS011;38816;51.142;-0.974;2022-11-20T04:45:53;19.58;;;3.58;;
51438;SDS011;38816;51.142;-0.974;2022-11-20T04:48:20;15.02;;;2.83;;
51438;SDS011;38816;51.142;-0.974;2022-11-20T04:50:45;10.00;;;2.03;;
51438;SDS011;38816;51.142;-0.974;2022-11-20T04:53:10;8.07;;;2.22;;
51438;SDS011;38816;51.142;-0.974;2022-11-20T04:55:36;15.68;;;1.73;;
51438;SDS011;38816;51.142;-0.974;2022-11-20T04:58:01;12.90;;;1.58;;
51438;SDS011;38816;51.142;-0.974;2022-11-20T05:00:27;14.20;;;1.48;;
51438;SDS011;38816;51.142;-0.974;2022-11-20T05:02:52;13.20;;;1.40;;
51438;SDS011;38816;51.142;-0.974;2022-11-20T05:05:18;5.20;;;1.40;;
51438;SDS011;38816;51.142;-0.974;2022-11-20T05:07:43;7.97;;;1.63;;
51438;SDS011;38816;51.142;-0.974;2022-11-20T05:10:08;6.70;;;1.30;;
51438;SDS011;38816;51.142;-0.974;2022-11-20T05:12:34;9.73;;;1.70;;
51438;SDS011;38816;51.142;-0.974;2022-11-20T05:14:59;9.32;;;1.25;;
51438;SDS011;38816;51.142;-0.974;2022-11-20T05:17:24;6.07;;;1.30;;
51438;SDS011;38816;51.142;-0.974;2022-11-20T05:19:50;9.10;;;1.27;;
51438;SDS011;38816;51.142;-0.974;2022-11-20T05:22:15;5.20;;;1.33;;
51438;SDS011;38816;51.142;-0.974;2022-11-20T05:24:41;17.35;;;1.98;;
51438;SDS011;38816;51.142;-0.974;2022-11-20T05:27:06;10.65;;;1.52;;
51438;SDS011;38816;51.142;-0.974;2022-11-20T05:29:31;12.80;;;1.52;;
51438;SDS011;38816;51.142;-0.974;2022-11-20T05:31:57;8.52;;;1.60;;
51438;SDS011;38816;51.142;-0.974;2022-11-20T05:34:22;7.70;;;1.48;;
51438;SDS011;38816;51.142;-0.974;2022-11-20T05:36:48;7.00;;;1.60;;
51438;SDS011;38816;51.142;-0.974;2022-11-20T05:39:13;5.35;;;1.48;;
51438;SDS011;38816;51.142;-0.974;2022-11-20T05:41:38;9.10;;;1.73;;
51438;SDS011;38816;51.142;-0.974;2022-11-20T05:44:04;8.30;;;1.65;;
51438;SDS011;38816;51.142;-0.974;2022-11-20T05:46:29;7.07;;;1.70;;
51438;SDS011;38816;51.142;-0.974;2022-11-20T05:48:55;8.93;;;1.55;;
51438;SDS011;38816;51.142;-0.974;2022-11-20T05:51:22;8.02;;;1.70;;
51438;SDS011;38816;51.142;-0.974;2022-11-20T05:53:47;8.40;;;1.80;;
51438;SDS011;38816;51.142;-0.974;2022-11-20T05:56:14;5.30;;;1.90;;
51438;SDS011;38816;51.142;-0.974;2022-11-20T05:58:45;3.78;;;1.70;;
51438;SDS011;38816;51.142;-0.974;2022-11-20T06:01:12;7.40;;;1.63;;
51438;SDS011;38816;51.142;-0.974;2022-11-20T06:03:38;6.22;;;1.73;;
51438;SDS011;38816;51.142;-0.974;2022-11-20T06:06:04;5.68;;;1.40;;
51438;SDS011;38816;51.142;-0.974;2022-11-20T06:08:30;8.77;;;1.20;;
51438;SDS011;38816;51.142;-0.974;2022-11-20T06:10:56;1.95;;;1.10;;
51438;SDS011;38816;51.142;-0.974;2022-11-20T06:13:22;4.90;;;0.98;;
51438;SDS011;38816;51.142;-0.974;2022-11-20T06:15:48;2.65;;;0.95;;
51438;SDS011;38816;51.142;-0.974;2022-11-20T06:18:18;28.23;;;6.10;;
51438;SDS011;38816;51.142;-0.974;2022-11-20T06:20:44;20.63;;;5.57;;
51438;SDS011;38816;51.142;-0.974;2022-11-20T06:23:09;6.50;;;2.50;;
51438;SDS011;38816;51.142;-0.974;2022-11-20T06:25:41;3.75;;;2.40;;
51438;SDS011;38816;51.142;-0.974;2022-11-20T06:28:08;4.63;;;2.00;;
51438;SDS011;38816;51.142;-0.974;2022-11-20T06:30:34;6.10;;;1.50;;
51438;SDS011;38816;51.142;-0.974;2022-11-20T06:32:59;6.28;;;0.77;;
51438;SDS011;38816;51.142;-0.974;2022-11-20T06:35:25;27.40;;;1.45;;
51438;SDS011;38816;51.142;-0.974;2022-11-20T06:37:50;63.15;;;2.30;;
51438;SDS011;38816;51.142;-0.974;2022-11-20T06:40:16;2.00;;;0.70;;
51438;SDS011;38816;51.142;-0.974;2022-11-20T06:42:41;16.88;;;1.20;;
51438;SDS011;38816;51.142;-0.974;2022-11-20T06:45:07;47.60;;;1.50;;
51438;SDS011;38816;51.142;-0.974;2022-11-20T06:47:33;0.98;;;0.50;;
51438;SDS011;38816;51.142;-0.974;2022-11-20T06:49:58;33.20;;;1.85;;
51438;SDS011;38816;51.142;-0.974;2022-11-20T06:52:24;41.30;;;2.53;;
51438;SDS011;38816;51.142;-0.974;2022-11-20T06:54:49;19.67;;;1.20;;
51438;SDS011;38816;51.142;-0.974;2022-11-20T06:57:14;3.20;;;0.85;;
51438;SDS011;38816;51.142;-0.974;2022-11-20T06:59:40;1.10;;;0.65;;
51438;SDS011;38816;51.142;-0.974;2022-11-20T07:02:05;0.57;;;0.43;;
51438;SDS011;38816;51.142;-0.974;2022-11-20T07:04:34;1.08;;;0.50;;
51438;SDS011;38816;51.142;-0.974;2022-11-20T07:06:59;0.55;;;0.50;;
51438;SDS011;38816;51.142;-0.974;2022-11-20T07:09:24;9.50;;;0.57;;
51438;SDS011;38816;51.142;-0.974;2022-11-20T07:11:50;2.35;;;0.60;;
51438;SDS011;38816;51.142;-0.974;2022-11-20T07:14:15;5.15;;;1.00;;
51438;SDS011;38816;51.142;-0.974;2022-11-20T07:16:40;1.33;;;0.75;;
51438;SDS011;38816;51.142;-0.974;2022-11-20T07:19:06;6.32;;;0.90;;
51438;SDS011;38816;51.142;-0.974;2022-11-20T07:21:31;5.65;;;0.85;;
51438;SDS011;38816;51.142;-0.974;2022-11-20T07:23:56;4.05;;;1.10;;
51438;SDS011;38816;51.142;-0.974;2022-11-20T07:26:22;4.13;;;1.40;;
51438;SDS011;38816;51.142;-0.974;2022-11-20T07:28:47;4.43;;;1.40;;
51438;SDS011;38816;51.142;-0.974;2022-11-20T07:31:13;3.20;;;1.80;;
51438;SDS011;38816;51.142;-0.974;2022-11-20T07:33:38;2.95;;;1.50;;
51438;SDS011;38816;51.142;-0.974;2022-11-20T07:36:04;4.57;;;2.20;;
51438;SDS011;38816;51.142;-0.974;2022-11-20T07:38:29;8.65;;;2.25;;
51438;SDS011;38816;51.142;-0.974;2022-11-20T07:40:58;6.25;;;2.13;;
51438;SDS011;38816;51.142;-0.974;2022-11-20T07:43:26;8.95;;;2.40;;
51438;SDS011;38816;51.142;-0.974;2022-11-20T07:45:52;7.45;;;2.15;;
51438;SDS011;38816;51.142;-0.974;2022-11-20T07:48:20;3.08;;;1.67;;
51438;SDS011;38816;51.142;-0.974;2022-11-20T07:50:45;3.22;;;1.85;;
51438;SDS011;38816;51.142;-0.974;2022-11-20T07:53:11;6.50;;;2.10;;
51438;SDS011;38816;51.142;-0.974;2022-11-20T07:55:37;5.85;;;2.05;;
51438;SDS011;38816;51.142;-0.974;2022-11-20T07:58:03;5.15;;;1.90;;
51438;SDS011;38816;51.142;-0.974;2022-11-20T08:00:28;10.32;;;2.47;;
51438;SDS011;38816;51.142;-0.974;2022-11-20T08:02:53;7.45;;;2.08;;
51438;SDS011;38816;51.142;-0.974;2022-11-20T08:05:19;7.18;;;2.00;;
51438;SDS011;38816;51.142;-0.974;2022-11-20T08:07:44;5.57;;;2.13;;
51438;SDS011;38816;51.142;-0.974;2022-11-20T08:10:11;8.55;;;2.20;;
51438;SDS011;38816;51.142;-0.974;2022-11-20T08:12:45;10.38;;;1.40;;
51438;SDS011;38816;51.142;-0.974;2022-11-20T08:15:30;10.88;;;1.90;;
51438;SDS011;38816;51.142;-0.974;2022-11-20T08:20:29;14.73;;;2.30;;
51438;SDS011;38816;51.142;-0.974;2022-11-20T08:22:58;6.82;;;2.75;;
51438;SDS011;38816;51.142;-0.974;2022-11-20T08:27:56;14.45;;;3.20;;
51438;SDS011;38816;51.142;-0.974;2022-11-20T08:30:23;10.93;;;2.85;;
51438;SDS011;38816;51.142;-0.974;2022-11-20T08:32:48;19.88;;;2.70;;
51438;SDS011;38816;51.142;-0.974;2022-11-20T08:35:14;7.82;;;2.13;;
51438;SDS011;38816;51.142;-0.974;2022-11-20T08:37:39;13.10;;;2.20;;
51438;SDS011;38816;51.142;-0.974;2022-11-20T08:40:07;10.60;;;2.45;;
51438;SDS011;38816;51.142;-0.974;2022-11-20T08:42:35;18.73;;;2.50;;
51438;SDS011;38816;51.142;-0.974;2022-11-20T08:45:00;10.77;;;2.22;;
51438;SDS011;38816;51.142;-0.974;2022-11-20T08:47:25;11.25;;;2.22;;
51438;SDS011;38816;51.142;-0.974;2022-11-20T08:49:51;10.02;;;2.40;;
51438;SDS011;38816;51.142;-0.974;2022-11-20T08:52:16;10.35;;;2.42;;
51438;SDS011;38816;51.142;-0.974;2022-11-20T08:54:42;21.23;;;3.47;;
51438;SDS011;38816;51.142;-0.974;2022-11-20T08:57:07;23.08;;;2.80;;
51438;SDS011;38816;51.142;-0.974;2022-11-20T08:59:32;14.98;;;2.58;;
51438;SDS011;38816;51.142;-0.974;2022-11-20T09:01:58;14.80;;;2.72;;
51438;SDS011;38816;51.142;-0.974;2022-11-20T09:04:23;18.92;;;3.30;;
51438;SDS011;38816;51.142;-0.974;2022-11-20T09:06:49;13.73;;;2.38;;
51438;SDS011;38816;51.142;-0.974;2022-11-20T09:09:16;13.70;;;3.20;;
51438;SDS011;38816;51.142;-0.974;2022-11-20T09:11:43;18.88;;;2.80;;
51438;SDS011;38816;51.142;-0.974;2022-11-20T09:14:08;19.38;;;2.45;;
51438;SDS011;38816;51.142;-0.974;2022-11-20T09:16:34;19.02;;;2.95;;
51438;SDS011;38816;51.142;-0.974;2022-11-20T09:18:59;33.75;;;4.47;;
51438;SDS011;38816;51.142;-0.974;2022-11-20T09:21:25;34.05;;;3.05;;
51438;SDS011;38816;51.142;-0.974;2022-11-20T09:23:50;14.70;;;3.05;;
51438;SDS011;38816;51.142;-0.974;2022-11-20T09:26:16;17.77;;;3.15;;
51438;SDS011;38816;51.142;-0.974;2022-11-20T09:28:41;29.52;;;3.83;;
51438;SDS011;38816;51.142;-0.974;2022-11-20T09:31:14;36.50;;;4.13;;
51438;SDS011;38816;51.142;-0.974;2022-11-20T09:33:46;35.28;;;3.85;;
51438;SDS011;38816;51.142;-0.974;2022-11-20T09:36:12;22.88;;;3.17;;
51438;SDS011;38816;51.142;-0.974;2022-11-20T09:38:37;11.55;;;1.98;;
51438;SDS011;38816;51.142;-0.974;2022-11-20T09:41:03;24.10;;;3.55;;
51438;SDS011;38816;51.142;-0.974;2022-11-20T09:46:40;23.67;;;3.63;;
51438;SDS011;38816;51.142;-0.974;2022-11-20T09:54:46;22.10;;;2.85;;
51438;SDS011;38816;51.142;-0.974;2022-11-20T09:57:13;29.33;;;4.10;;
51438;SDS011;38816;51.142;-0.974;2022-11-20T09:59:48;33.35;;;3.22;;
51438;SDS011;38816;51.142;-0.974;2022-11-20T10:04:43;22.20;;;2.53;;
51438;SDS011;38816;51.142;-0.974;2022-11-20T10:09:57;28.42;;;3.10;;
51438;SDS011;38816;51.142;-0.974;2022-11-20T10:15:06;30.17;;;3.25;;
51438;SDS011;38816;51.142;-0.974;2022-11-20T10:20:12;22.63;;;2.40;;
51438;SDS011;38816;51.142;-0.974;2022-11-20T10:25:08;28.80;;;3.58;;
51438;SDS011;38816;51.142;-0.974;2022-11-20T10:30:42;15.60;;;2.92;;
51438;SDS011;38816;51.142;-0.974;2022-11-20T10:33:17;41.45;;;4.75;;
51438;SDS011;38816;51.142;-0.974;2022-11-20T10:35:50;31.00;;;3.13;;
51438;SDS011;38816;51.142;-0.974;2022-11-20T10:38:25;27.58;;;3.53;;
51438;SDS011;38816;51.142;-0.974;2022-11-20T10:40:56;34.28;;;4.38;;
51438;SDS011;38816;51.142;-0.974;2022-11-20T10:43:44;32.15;;;3.38;;
51438;SDS011;38816;51.142;-0.974;2022-11-20T10:46:20;40.38;;;3.80;;
51438;SDS011;38816;51.142;-0.974;2022-11-20T10:48:47;31.17;;;3.60;;
51438;SDS011;38816;51.142;-0.974;2022-11-20T10:56:56;31.35;;;3.42;;
51438;SDS011;38816;51.142;-0.974;2022-11-20T10:59:54;46.45;;;5.18;;
51438;SDS011;38816;51.142;-0.974;2022-11-20T11:02:16;40.67;;;5.38;;
51438;SDS011;38816;51.142;-0.974;2022-11-20T11:05:06;39.38;;;4.68;;
51438;SDS011;38816;51.142;-0.974;2022-11-20T11:07:40;45.03;;;4.93;;
51438;SDS011;38816;51.142;-0.974;2022-11-20T11:10:13;31.35;;;4.45;;
51438;SDS011;38816;51.142;-0.974;2022-11-20T11:12:51;34.50;;;4.80;;
51438;SDS011;38816;51.142;-0.974;2022-11-20T11:17:52;36.80;;;4.40;;
51438;SDS011;38816;51.142;-0.974;2022-11-20T11:20:22;37.65;;;4.75;;
51438;SDS011;38816;51.142;-0.974;2022-11-20T11:22:50;27.02;;;4.28;;
51438;SDS011;38816;51.142;-0.974;2022-11-20T11:27:54;42.20;;;4.75;;
51438;SDS011;38816;51.142;-0.974;2022-11-20T11:30:22;22.17;;;3.50;;
51438;SDS011;38816;51.142;-0.974;2022-11-20T11:32:48;32.78;;;4.28;;
51438;SDS011;38816;51.142;-0.974;2022-11-20T11:35:26;34.80;;;3.80;;
51438;SDS011;38816;51.142;-0.974;2022-11-20T11:37:54;29.90;;;3.78;;
51438;SDS011;38816;51.142;-0.974;2022-11-20T11:40:29;27.83;;;4.20;;
51438;SDS011;38816;51.142;-0.974;2022-11-20T11:42:58;38.70;;;4.35;;
51438;SDS011;38816;51.142;-0.974;2022-11-20T11:45:26;32.28;;;4.28;;
51438;SDS011;38816;51.142;-0.974;2022-11-20T11:47:53;28.50;;;4.25;;
51438;SDS011;38816;51.142;-0.974;2022-11-20T11:50:23;29.02;;;4.10;;
51438;SDS011;38816;51.142;-0.974;2022-11-20T11:58:09;26.08;;;3.00;;
51438;SDS011;38816;51.142;-0.974;2022-11-20T12:01:17;33.50;;;3.75;;
51438;SDS011;38816;51.142;-0.974;2022-11-20T12:06:51;32.85;;;3.92;;
51438;SDS011;38816;51.142;-0.974;2022-11-20T12:09:23;37.30;;;4.60;;
51438;SDS011;38816;51.142;-0.974;2022-11-20T12:11:58;26.00;;;4.10;;
51438;SDS011;38816;51.142;-0.974;2022-11-20T12:14:35;23.48;;;3.15;;
51438;SDS011;38816;51.142;-0.974;2022-11-20T12:17:02;27.27;;;3.25;;
51438;SDS011;38816;51.142;-0.974;2022-11-20T12:19:33;42.15;;;4.15;;
51438;SDS011;38816;51.142;-0.974;2022-11-20T12:22:02;27.30;;;4.20;;
51438;SDS011;38816;51.142;-0.974;2022-11-20T12:24:42;27.90;;;3.58;;
51438;SDS011;38816;51.142;-0.974;2022-11-20T12:30:17;29.23;;;2.90;;
51438;SDS011;38816;51.142;-0.974;2022-11-20T12:37:59;31.00;;;3.92;;
51438;SDS011;38816;51.142;-0.974;2022-11-20T12:46:08;27.45;;;4.28;;
51438;SDS011;38816;51.142;-0.974;2022-11-20T12:48:50;27.15;;;4.13;;
51438;SDS011;38816;51.142;-0.974;2022-11-20T13:05:05;21.35;;;3.05;;
51438;SDS011;38816;51.142;-0.974;2022-11-20T13:07:34;20.27;;;3.00;;
51438;SDS011;38816;51.142;-0.974;2022-11-20T13:10:00;20.48;;;3.30;;
51438;SDS011;38816;51.142;-0.974;2022-11-20T13:12:34;21.33;;;2.90;;
51438;SDS011;38816;51.142;-0.974;2022-11-20T13:15:11;18.60;;;3.63;;
51438;SDS011;38816;51.142;-0.974;2022-11-20T13:18:00;24.10;;;3.85;;
51438;SDS011;38816;51.142;-0.974;2022-11-20T13:20:28;19.27;;;3.00;;
51438;SDS011;38816;51.142;-0.974;2022-11-20T13:22:55;23.00;;;2.92;;
51438;SDS011;38816;51.142;-0.974;2022-11-20T13:25:34;23.88;;;3.75;;
51438;SDS011;38816;51.142;-0.974;2022-11-20T13:28:26;22.90;;;4.10;;
51438;SDS011;38816;51.142;-0.974;2022-11-20T13:30:54;28.17;;;3.60;;
51438;SDS011;38816;51.142;-0.974;2022-11-20T13:33:28;24.13;;;3.67;;
51438;SDS011;38816;51.142;-0.974;2022-11-20T13:35:59;24.42;;;3.42;;
51438;SDS011;38816;51.142;-0.974;2022-11-20T13:38:24;20.08;;;3.30;;
51438;SDS011;38816;51.142;-0.974;2022-11-20T13:41:00;23.55;;;2.70;;
51438;SDS011;38816;51.142;-0.974;2022-11-20T13:43:49;23.02;;;3.35;;
51438;SDS011;38816;51.142;-0.974;2022-11-20T13:46:14;28.40;;;4.00;;
51438;SDS011;38816;51.142;-0.974;2022-11-20T13:48:44;22.63;;;3.90;;
51438;SDS011;38816;51.142;-0.974;2022-11-20T14:02:01;26.58;;;3.33;;
51438;SDS011;38816;51.142;-0.974;2022-11-20T14:04:30;17.77;;;3.40;;
51438;SDS011;38816;51.142;-0.974;2022-11-20T14:07:00;24.50;;;3.83;;
51438;SDS011;38816;51.142;-0.974;2022-11-20T14:11:55;26.20;;;3.75;;
51438;SDS011;38816;51.142;-0.974;2022-11-20T14:14:22;23.77;;;3.47;;
51438;SDS011;38816;51.142;-0.974;2022-11-20T14:16:49;27.27;;;3.80;;
51438;SDS011;38816;51.142;-0.974;2022-11-20T14:21:53;22.02;;;3.65;;
51438;SDS011;38816;51.142;-0.974;2022-11-20T14:24:23;19.98;;;3.65;;
51438;SDS011;38816;51.142;-0.974;2022-11-20T14:26:50;22.60;;;3.83;;
51438;SDS011;38816;51.142;-0.974;2022-11-20T14:29:18;24.85;;;4.07;;
51438;SDS011;38816;51.142;-0.974;2022-11-20T14:31:45;19.63;;;3.58;;
51438;SDS011;38816;51.142;-0.974;2022-11-20T14:34:14;20.27;;;3.08;;
51438;SDS011;38816;51.142;-0.974;2022-11-20T14:36:42;16.55;;;3.33;;
51438;SDS011;38816;51.142;-0.974;2022-11-20T14:39:11;31.98;;;4.07;;
51438;SDS011;38816;51.142;-0.974;2022-11-20T14:41:49;20.98;;;3.47;;
51438;SDS011;38816;51.142;-0.974;2022-11-20T14:44:16;16.23;;;3.45;;
51438;SDS011;38816;51.142;-0.974;2022-11-20T14:46:42;22.88;;;3.40;;
51438;SDS011;38816;51.142;-0.974;2022-11-20T14:49:08;16.70;;;3.25;;
51438;SDS011;38816;51.142;-0.974;2022-11-20T14:51:36;18.60;;;3.38;;
51438;SDS011;38816;51.142;-0.974;2022-11-20T14:56:56;22.08;;;2.50;;
51438;SDS011;38816;51.142;-0.974;2022-11-20T14:59:26;23.92;;;2.83;;
51438;SDS011;38816;51.142;-0.974;2022-11-20T15:01:58;16.10;;;2.78;;
51438;SDS011;38816;51.142;-0.974;2022-11-20T15:04:56;17.27;;;2.42;;
51438;SDS011;38816;51.142;-0.974;2022-11-20T15:07:26;11.27;;;2.13;;
51438;SDS011;38816;51.142;-0.974;2022-11-20T15:10:26;6.03;;;1.08;;
51438;SDS011;38816;51.142;-0.974;2022-11-20T15:12:48;11.25;;;2.08;;
51438;SDS011;38816;51.142;-0.974;2022-11-20T15:18:18;10.07;;;2.10;;
51438;SDS011;38816;51.142;-0.974;2022-11-20T15:20:46;11.63;;;2.08;;
51438;SDS011;38816;51.142;-0.974;2022-11-20T15:23:13;9.95;;;1.98;;
51438;SDS011;38816;51.142;-0.974;2022-11-20T15:25:40;6.93;;;1.77;;
51438;SDS011;38816;51.142;-0.974;2022-11-20T15:30:46;13.13;;;2.20;;
51438;SDS011;38816;51.142;-0.974;2022-11-20T15:33:13;6.78;;;1.27;;
51438;SDS011;38816;51.142;-0.974;2022-11-20T15:35:40;11.40;;;1.67;;
51438;SDS011;38816;51.142;-0.974;2022-11-20T15:38:05;11.50;;;1.55;;
51438;SDS011;38816;51.142;-0.974;2022-11-20T15:40:31;8.60;;;1.17;;
51438;SDS011;38816;51.142;-0.974;2022-11-20T15:42:56;8.52;;;1.10;;
51438;SDS011;38816;51.142;-0.974;2022-11-20T15:45:27;6.57;;;1.40;;
51438;SDS011;38816;51.142;-0.974;2022-11-20T15:47:55;6.32;;;1.30;;
51438;SDS011;38816;51.142;-0.974;2022-11-20T15:50:21;6.60;;;1.63;;
51438;SDS011;38816;51.142;-0.974;2022-11-20T15:52:47;4.63;;;1.00;;
51438;SDS011;38816;51.142;-0.974;2022-11-20T15:55:12;7.85;;;1.08;;
51438;SDS011;38816;51.142;-0.974;2022-11-20T15:57:37;6.88;;;1.40;;
51438;SDS011;38816;51.142;-0.974;2022-11-20T16:00:03;7.13;;;1.20;;
51438;SDS011;38816;51.142;-0.974;2022-11-20T16:02:29;9.20;;;1.38;;
51438;SDS011;38816;51.142;-0.974;2022-11-20T16:04:54;6.22;;;1.23;;
51438;SDS011;38816;51.142;-0.974;2022-11-20T16:07:20;9.38;;;1.67;;
51438;SDS011;38816;51.142;-0.974;2022-11-20T16:09:45;8.02;;;1.20;;
51438;SDS011;38816;51.142;-0.974;2022-11-20T16:12:10;9.48;;;1.50;;
51438;SDS011;38816;51.142;-0.974;2022-11-20T16:14:56;7.20;;;1.88;;